Terminal Aerodrome Forecast
Issued by NWS

Home | Current Version | Previous Version | Graphics & Text | Print | Product List | Glossary On
Versions: 1 2 3 4 5 6 7 8 9 10 11 12 13
000
FTUS43 KICT 270520
TAFCNU
TAF
KCNU 270520Z 2706/2806 VRB05KT P6SM SCT035 BKN050 OVC100
     FM270600 04011G17KT P6SM BKN015 BKN050
     FM271800 36011KT P6SM BKN050
     FM280000 VRB04KT P6SM BKN100=

USA.gov is the U.S. government's official web portal to all federal, state and local government web resources and services.